Time;durP1;ratioP1;P1;durP2;ratioP2;P2;SDS_P1;SDS_P2;PMS_P1;PMS_P2;Temp;Humidity;BMP_temperature;BMP_pressure;BME280_temperature;BME280_humidity;BME280_pressure;Samples;Min_cycle;Max_cycle;Signal;HPM_P1;HPM_P2
2021/11/24 00:01:41;;;;;;;16.77;12.27;;;-1.80;99.90;;;;;;5049851;28;20466;-64
2021/11/24 00:04:08;;;;;;;17.87;13.57;;;-1.80;99.90;;;;;;5049626;28;20825;-65
2021/11/24 00:06:34;;;;;;;18.10;13.07;;;-1.70;99.90;;;;;;5048524;28;20542;-62
2021/11/24 00:09:01;;;;;;;18.60;13.40;;;-1.70;99.90;;;;;;5049721;28;20458;-64
2021/11/24 00:11:28;;;;;;;14.93;13.07;;;-1.80;99.90;;;;;;5049550;28;20486;-64
2021/11/24 00:13:57;;;;;;;14.67;12.30;;;-1.80;99.90;;;;;;5049538;28;20437;-64
2021/11/24 00:16:24;;;;;;;14.73;12.47;;;-1.90;99.90;;;;;;5048610;28;20939;-62
2021/11/24 00:18:51;;;;;;;16.73;12.30;;;-2.00;99.90;;;;;;5052402;28;20974;-65
2021/11/24 00:21:19;;;;;;;14.07;11.30;;;-2.00;99.90;;;;;;5053108;28;21031;-64
2021/11/24 00:23:46;;;;;;;14.80;11.70;;;-2.10;99.90;;;;;;5053270;28;20482;-64
2021/11/24 00:26:13;;;;;;;17.57;12.67;;;-2.00;99.90;;;;;;5053068;28;20533;-64
2021/11/24 00:28:40;;;;;;;14.20;11.47;;;-2.00;99.90;;;;;;5052399;28;20465;-64
2021/11/24 00:31:08;;;;;;;14.37;11.30;;;-1.90;99.90;;;;;;5052934;28;20935;-63
2021/11/24 00:33:35;;;;;;;15.07;11.07;;;-1.80;99.90;;;;;;5053170;28;20469;-64
2021/11/24 00:36:02;;;;;;;17.97;13.20;;;-2.00;99.90;;;;;;5053053;28;20446;-61
2021/11/24 00:38:29;;;;;;;16.50;12.47;;;-2.00;99.90;;;;;;5051565;28;20470;-64
2021/11/24 00:40:56;;;;;;;15.00;11.63;;;-2.00;99.90;;;;;;5052759;28;20934;-65
2021/11/24 00:43:23;;;;;;;16.57;12.47;;;-2.00;99.90;;;;;;5052619;28;20448;-64
2021/11/24 00:45:51;;;;;;;16.80;11.93;;;-2.00;99.90;;;;;;5052909;28;20462;-64
2021/11/24 00:48:19;;;;;;;14.17;11.27;;;-2.10;99.90;;;;;;5051481;28;20476;-63
2021/11/24 00:50:46;;;;;;;15.00;11.17;;;-2.20;99.90;;;;;;5052699;28;20448;-62
2021/11/24 00:53:12;;;;;;;15.37;12.50;;;-2.20;99.90;;;;;;5052644;28;20473;-63
2021/11/24 00:55:39;;;;;;;16.40;12.13;;;-2.20;99.90;;;;;;5052523;28;20437;-62
2021/11/24 00:58:06;;;;;;;17.00;11.40;;;-2.20;99.90;;;;;;5051094;28;20472;-62
2021/11/24 01:00:33;;;;;;;16.57;11.90;;;-2.20;99.90;;;;;;5052204;28;21032;-63
2021/11/24 01:03:00;;;;;;;20.37;12.70;;;-2.20;99.90;;;;;;5052551;28;20452;-63
2021/11/24 01:05:30;;;;;;;15.63;11.63;;;-2.20;99.90;;;;;;5052169;28;20938;-63
2021/11/24 01:07:57;;;;;;;14.93;11.27;;;-2.30;99.90;;;;;;5051124;28;20526;-62
2021/11/24 01:10:24;;;;;;;18.37;12.30;;;-2.30;99.90;;;;;;5052109;28;20478;-62
2021/11/24 01:12:51;;;;;;;14.47;10.13;;;-2.30;99.90;;;;;;5052291;28;20808;-63
2021/11/24 01:15:18;;;;;;;16.73;12.50;;;-2.30;99.90;;;;;;5052456;28;20448;-64
2021/11/24 01:17:45;;;;;;;17.80;11.97;;;-2.30;99.90;;;;;;5050956;28;20478;-63
2021/11/24 01:20:13;;;;;;;16.53;11.10;;;-2.30;99.90;;;;;;5052233;28;20475;-64
2021/11/24 01:22:42;;;;;;;14.97;11.40;;;-2.20;99.90;;;;;;5051852;28;21029;-63
2021/11/24 01:25:10;;;;;;;21.20;12.90;;;-2.30;99.90;;;;;;5051093;28;20455;-64
2021/11/24 01:27:37;;;;;;;16.70;13.27;;;-2.30;99.90;;;;;;5050305;28;20476;-63
2021/11/24 01:30:05;;;;;;;15.93;12.60;;;-2.20;99.90;;;;;;5051879;28;20451;-64
2021/11/24 01:32:32;;;;;;;20.63;13.50;;;-2.20;99.90;;;;;;5051827;28;20942;-62
2021/11/24 01:34:59;;;;;;;18.03;13.07;;;-2.20;99.90;;;;;;5051712;28;20502;-62
2021/11/24 01:37:25;;;;;;;17.90;12.10;;;-2.30;99.90;;;;;;5050286;28;20820;-60
2021/11/24 01:39:54;;;;;;;19.63;14.63;;;-2.30;99.90;;;;;;5050908;28;20479;-63
2021/11/24 01:42:21;;;;;;;15.50;13.90;;;-2.30;99.90;;;;;;5051669;28;20531;-63
2021/11/24 01:44:48;;;;;;;15.53;12.97;;;-2.40;99.90;;;;;;5051870;28;20531;-63
2021/11/24 01:47:14;;;;;;;19.40;12.77;;;-2.50;99.90;;;;;;5050292;28;20571;-63
2021/11/24 01:49:41;;;;;;;15.73;12.13;;;-2.50;99.90;;;;;;5051383;28;20441;-64
2021/11/24 01:52:08;;;;;;;17.93;12.40;;;-2.50;99.90;;;;;;5051208;28;20448;-63
2021/11/24 01:54:35;;;;;;;16.80;12.83;;;-2.50;99.90;;;;;;5051631;28;20444;-63
2021/11/24 01:57:04;;;;;;;16.93;11.77;;;-2.50;99.90;;;;;;5050098;28;20515;-63
2021/11/24 01:59:31;;;;;;;15.20;11.77;;;-2.60;99.90;;;;;;5051348;28;20459;-64
2021/11/24 02:01:58;;;;;;;17.20;11.73;;;-2.60;99.90;;;;;;5051198;28;20494;-63
2021/11/24 02:04:25;;;;;;;18.57;13.83;;;-2.60;99.90;;;;;;5051322;28;20454;-63
2021/11/24 02:06:53;;;;;;;19.43;14.00;;;-2.70;99.90;;;;;;5049842;28;20459;-64
2021/11/24 02:09:21;;;;;;;15.17;12.20;;;-2.70;99.90;;;;;;5051137;28;21130;-64
2021/11/24 02:11:49;;;;;;;22.00;13.70;;;-2.70;99.90;;;;;;5051307;28;20470;-64
2021/11/24 02:14:17;;;;;;;15.70;11.40;;;-2.70;99.90;;;;;;5051045;28;20984;-63
2021/11/24 02:16:46;;;;;;;15.57;12.23;;;-2.60;99.90;;;;;;5049582;28;20441;-63
2021/11/24 02:19:13;;;;;;;17.00;12.23;;;-2.60;99.90;;;;;;5051098;28;20965;-61
2021/11/24 02:21:45;;;;;;;15.87;12.70;;;-2.60;99.90;;;;;;5050885;28;20854;-63
2021/11/24 02:24:12;;;;;;;17.90;11.33;;;-2.50;99.90;;;;;;5051455;28;20441;-63
2021/11/24 02:26:39;;;;;;;16.80;11.60;;;-2.60;99.90;;;;;;5049813;28;20451;-63
2021/11/24 02:29:06;;;;;;;17.73;12.40;;;-2.70;99.90;;;;;;5050867;28;20539;-62
2021/11/24 02:31:33;;;;;;;18.60;12.63;;;-2.80;99.90;;;;;;5050814;28;20539;-62
2021/11/24 02:34:00;;;;;;;18.30;14.00;;;-2.90;99.90;;;;;;5050705;28;20444;-62
2021/11/24 02:36:28;;;;;;;17.40;13.00;;;-2.80;99.90;;;;;;5050268;28;20444;-64
2021/11/24 02:38:59;;;;;;;17.87;13.87;;;-2.90;99.90;;;;;;5050422;28;20472;-63
2021/11/24 02:41:26;;;;;;;17.30;14.53;;;-2.80;99.90;;;;;;5050188;28;20587;-63
2021/11/24 02:43:53;;;;;;;15.43;13.37;;;-2.80;99.90;;;;;;5050757;28;20568;-64
2021/11/24 02:46:20;;;;;;;14.73;13.20;;;-2.80;99.90;;;;;;5050085;28;20444;-61
2021/11/24 02:48:47;;;;;;;18.27;13.53;;;-2.70;99.90;;;;;;5050480;28;20471;-61
2021/11/24 02:51:14;;;;;;;15.17;12.80;;;-2.70;99.90;;;;;;5050966;28;20444;-61
2021/11/24 02:53:40;;;;;;;14.40;12.27;;;-2.80;99.90;;;;;;5050528;28;20444;-63
2021/11/24 02:56:08;;;;;;;13.23;10.67;;;-2.70;99.90;;;;;;5050536;28;20439;-62
2021/11/24 02:58:35;;;;;;;13.80;10.60;;;-2.70;99.90;;;;;;5049277;28;21045;-63
2021/11/24 03:01:03;;;;;;;15.07;12.27;;;-2.70;99.90;;;;;;5050510;28;20471;-63
2021/11/24 03:03:30;;;;;;;19.43;12.07;;;-2.60;99.90;;;;;;5050632;28;20456;-62
2021/11/24 03:05:57;;;;;;;14.00;11.27;;;-2.70;99.90;;;;;;5050494;28;20449;-64
2021/11/24 03:08:24;;;;;;;16.40;11.60;;;-2.70;99.90;;;;;;5049245;28;20460;-62
2021/11/24 03:10:51;;;;;;;14.97;12.23;;;-2.80;99.90;;;;;;5050394;28;20824;-60
2021/11/24 03:13:19;;;;;;;18.20;12.07;;;-2.80;99.90;;;;;;5050258;28;20466;-64
2021/11/24 03:15:46;;;;;;;18.30;12.73;;;-2.90;99.90;;;;;;5050382;28;20450;-63
2021/11/24 03:18:13;;;;;;;14.93;11.77;;;-2.90;99.90;;;;;;5049234;28;20564;-63
2021/11/24 03:20:40;;;;;;;17.10;11.43;;;-2.90;99.90;;;;;;5050177;28;21185;-63
2021/11/24 03:23:08;;;;;;;18.40;13.80;;;-2.80;99.90;;;;;;5051161;28;20452;-62
2021/11/24 03:25:35;;;;;;;18.87;12.20;;;-2.80;99.90;;;;;;5051377;28;21011;-64
2021/11/24 03:28:03;;;;;;;16.80;12.47;;;-2.90;99.90;;;;;;5050156;28;21116;-64
2021/11/24 03:30:33;;;;;;;13.27;11.87;;;-2.90;99.90;;;;;;5050032;28;20452;-63
2021/11/24 03:33:02;;;;;;;18.37;11.67;;;-2.90;99.90;;;;;;5050176;28;20455;-64
2021/11/24 03:35:30;;;;;;;17.80;12.87;;;-2.80;99.90;;;;;;5049754;28;20544;-62
2021/11/24 03:37:57;;;;;;;15.03;13.43;;;-2.80;99.90;;;;;;5048771;28;20555;-64
2021/11/24 03:40:27;;;;;;;15.17;11.70;;;-2.70;99.90;;;;;;5049989;28;20450;-63
2021/11/24 03:42:55;;;;;;;20.53;12.80;;;-2.80;99.90;;;;;;5050221;28;20451;-64
2021/11/24 03:45:27;;;;;;;16.00;12.57;;;-2.90;99.90;;;;;;5049502;28;20458;-61
2021/11/24 03:47:57;;;;;;;16.27;12.30;;;-2.80;99.90;;;;;;5048364;28;20981;-64
2021/11/24 03:50:24;;;;;;;16.07;11.80;;;-2.80;99.90;;;;;;5049476;28;20455;-63
2021/11/24 03:52:51;;;;;;;14.30;10.50;;;-2.80;99.90;;;;;;5053445;28;20460;-63
2021/11/24 03:55:18;;;;;;;14.07;11.27;;;-2.90;99.90;;;;;;5053246;28;20826;-63
2021/11/24 03:57:47;;;;;;;18.20;12.30;;;-2.90;99.90;;;;;;5052568;28;20574;-64
2021/11/24 04:00:17;;;;;;;15.10;11.17;;;-3.00;99.90;;;;;;5053807;28;20462;-63
2021/11/24 04:02:44;;;;;;;15.70;11.97;;;-3.00;99.90;;;;;;5053559;28;20444;-64
2021/11/24 04:05:12;;;;;;;15.65;11.30;;;-3.00;99.90;;;;;;5053616;28;20482;-63
2021/11/24 04:07:40;;;;;;;12.93;10.40;;;-3.10;99.90;;;;;;5051967;28;20230;-61
2021/11/24 04:10:08;;;;;;;13.40;10.50;;;-3.10;99.90;;;;;;5053162;28;20946;-63
2021/11/24 04:12:37;;;;;;;12.30;10.77;;;-3.20;99.90;;;;;;5053452;28;20476;-65
2021/11/24 04:15:04;;;;;;;13.57;11.23;;;-3.20;99.90;;;;;;5053174;28;20448;-63
2021/11/24 04:17:31;;;;;;;15.77;10.47;;;-3.30;99.90;;;;;;5052018;28;20467;-63
2021/11/24 04:19:58;;;;;;;14.80;11.33;;;-3.20;99.90;;;;;;5053413;28;20463;-62
2021/11/24 04:22:26;;;;;;;16.63;11.67;;;-3.20;99.90;;;;;;5053211;28;20491;-64
2021/11/24 04:24:53;;;;;;;15.53;11.10;;;-3.20;99.90;;;;;;5053315;28;20467;-64
2021/11/24 04:27:20;;;;;;;13.07;9.37;;;-3.20;99.90;;;;;;5052101;28;20472;-62
2021/11/24 04:29:46;;;;;;;13.43;10.53;;;-3.20;99.90;;;;;;5053098;28;20937;-63
2021/11/24 04:32:13;;;;;;;17.53;11.87;;;-3.30;99.90;;;;;;5053100;28;20448;-64
2021/11/24 04:34:40;;;;;;;13.73;10.57;;;-3.20;99.90;;;;;;5052971;28;20524;-63
2021/11/24 04:37:07;;;;;;;14.77;11.20;;;-3.20;99.90;;;;;;5051712;28;20541;-63
2021/11/24 04:39:35;;;;;;;12.27;10.23;;;-3.20;99.90;;;;;;5053624;28;20856;-65
2021/11/24 04:42:02;;;;;;;15.40;11.87;;;-3.20;99.90;;;;;;5053256;28;20489;-64
2021/11/24 04:44:29;;;;;;;17.70;11.30;;;-3.30;99.90;;;;;;5053458;28;20467;-63
2021/11/24 04:46:56;;;;;;;16.10;11.60;;;-3.30;99.90;;;;;;5052464;28;20448;-64
2021/11/24 04:49:22;;;;;;;16.07;11.33;;;-3.20;99.90;;;;;;5053077;28;20460;-64
2021/11/24 04:51:49;;;;;;;16.70;12.57;;;-3.20;99.90;;;;;;5052627;28;20959;-62
2021/11/24 04:54:16;;;;;;;12.40;10.70;;;-3.20;99.90;;;;;;5052610;28;20954;-64
2021/11/24 04:56:45;;;;;;;16.37;11.97;;;-3.20;99.90;;;;;;5051270;28;20452;-63
2021/11/24 04:59:12;;;;;;;14.80;11.47;;;-3.30;99.90;;;;;;5052670;28;20448;-64
2021/11/24 05:01:38;;;;;;;16.00;11.13;;;-3.20;99.90;;;;;;5052448;28;21065;-64
2021/11/24 05:04:05;;;;;;;15.70;10.83;;;-3.30;99.90;;;;;;5051792;28;20455;-64
2021/11/24 05:06:32;;;;;;;16.73;12.00;;;-3.30;99.90;;;;;;5051612;28;20493;-66
2021/11/24 05:08:59;;;;;;;16.13;10.70;;;-3.30;99.90;;;;;;5052407;28;20490;-64
2021/11/24 05:11:26;;;;;;;13.03;10.90;;;-3.20;99.90;;;;;;5052167;28;20452;-64
2021/11/24 05:13:57;;;;;;;20.40;12.43;;;-3.30;99.90;;;;;;5052207;28;20452;-61
2021/11/24 05:16:28;;;;;;;21.67;11.90;;;-3.30;99.90;;;;;;5051576;28;20448;-63
2021/11/24 05:18:55;;;;;;;14.63;11.03;;;-3.40;99.90;;;;;;5051796;28;20499;-64
2021/11/24 05:21:25;;;;;;;13.17;9.73;;;-3.30;99.90;;;;;;5052243;28;20507;-63
2021/11/24 05:23:52;;;;;;;15.77;11.97;;;-3.30;99.90;;;;;;5052491;28;20459;-62
2021/11/24 05:26:19;;;;;;;15.20;11.17;;;-3.30;99.90;;;;;;5051492;28;20490;-64
2021/11/24 05:28:47;;;;;;;13.83;11.03;;;-3.40;99.90;;;;;;5051745;28;20468;-63
2021/11/24 05:31:15;;;;;;;18.27;11.90;;;-3.50;99.90;;;;;;5052241;28;20506;-61
2021/11/24 05:33:43;;;;;;;14.50;10.07;;;-3.50;99.90;;;;;;5052234;28;20874;-63
2021/11/24 05:36:11;;;;;;;17.37;12.83;;;-3.50;99.90;;;;;;5048386;28;20447;-60
2021/11/24 05:38:38;;;;;;;15.40;11.77;;;-3.40;99.90;;;;;;5049730;28;20575;-62
2021/11/24 05:41:05;;;;;;;14.40;10.90;;;-3.50;99.90;;;;;;5051766;28;20938;-65
2021/11/24 05:43:32;;;;;;;16.00;11.93;;;-3.40;99.90;;;;;;5051414;28;20535;-65
2021/11/24 05:48:43;;;;;;;15.53;10.80;;;-3.40;99.90;;;;;;5043889;28;20549;-61
2021/11/24 05:51:10;;;;;;;14.83;11.00;;;-3.50;99.90;;;;;;5050694;28;20443;-64
2021/11/24 05:53:38;;;;;;;17.88;12.00;;;-3.60;99.90;;;;;;5051580;28;20451;-64
2021/11/24 05:56:05;;;;;;;15.80;11.70;;;-3.50;99.90;;;;;;5051098;28;20198;-64
2021/11/24 05:58:32;;;;;;;17.03;12.27;;;-3.50;99.90;;;;;;5050144;28;20486;-64
2021/11/24 06:00:59;;;;;;;16.23;11.20;;;-3.50;99.90;;;;;;5051073;28;20452;-62
2021/11/24 06:03:26;;;;;;;15.57;10.93;;;-3.40;99.90;;;;;;5047933;28;20448;-63
2021/11/24 06:05:54;;;;;;;18.53;11.93;;;-3.40;99.90;;;;;;5046054;28;20464;-65
2021/11/24 06:08:21;;;;;;;17.42;12.13;;;-3.40;99.90;;;;;;5045769;28;20479;-63
2021/11/24 06:10:50;;;;;;;16.87;12.00;;;-3.40;99.90;;;;;;5043747;28;20211;-62
2021/11/24 06:13:17;;;;;;;18.40;13.17;;;-3.40;99.90;;;;;;5047577;28;20971;-63
2021/11/24 06:15:44;;;;;;;18.70;12.20;;;-3.30;99.90;;;;;;5048052;28;20444;-62
2021/11/24 06:18:11;;;;;;;16.33;12.10;;;-3.20;99.90;;;;;;5047906;28;20503;-61
2021/11/24 06:20:39;;;;;;;16.87;12.30;;;-3.20;99.90;;;;;;5049740;28;20452;-64
2021/11/24 06:23:08;;;;;;;21.23;14.70;;;-3.10;99.90;;;;;;5050078;28;20494;-63
2021/11/24 06:25:35;;;;;;;22.10;13.70;;;-3.10;99.90;;;;;;5050764;28;20451;-61
2021/11/24 06:28:02;;;;;;;17.77;13.27;;;-3.00;99.90;;;;;;5049667;28;20466;-63
2021/11/24 06:30:29;;;;;;;17.00;12.13;;;-2.90;99.90;;;;;;5050962;28;20527;-64
2021/11/24 06:32:56;;;;;;;21.70;15.37;;;-3.00;99.90;;;;;;5050767;28;20454;-62
2021/11/24 06:35:23;;;;;;;21.13;14.57;;;-3.00;99.90;;;;;;5050510;28;20441;-63
2021/11/24 06:37:50;;;;;;;20.97;14.20;;;-2.90;99.90;;;;;;5049554;28;20475;-64
2021/11/24 06:40:18;;;;;;;20.17;14.13;;;-2.90;99.90;;;;;;5050802;28;20455;-64
2021/11/24 06:42:45;;;;;;;23.87;14.73;;;-2.90;99.90;;;;;;5050463;28;20536;-63
2021/11/24 06:45:13;;;;;;;19.90;14.73;;;-2.90;99.90;;;;;;5050382;28;20821;-63
2021/11/24 06:47:41;;;;;;;25.70;16.80;;;-2.90;99.90;;;;;;5048854;28;20466;-64
2021/11/24 06:50:09;;;;;;;21.63;15.10;;;-2.90;99.90;;;;;;5049936;28;20898;-63
2021/11/24 06:52:36;;;;;;;24.93;14.80;;;-2.90;99.90;;;;;;5050138;28;20530;-64
2021/11/24 06:55:04;;;;;;;23.67;15.07;;;-2.80;99.90;;;;;;5049977;28;20535;-63
2021/11/24 06:57:32;;;;;;;25.57;14.80;;;-2.70;99.90;;;;;;5048797;28;20858;-62
2021/11/24 06:59:59;;;;;;;20.73;14.37;;;-2.60;99.90;;;;;;5049886;28;20894;-56
2021/11/24 07:02:25;;;;;;;28.67;16.40;;;-2.60;99.90;;;;;;5049755;28;20472;-63
2021/11/24 07:04:52;;;;;;;22.90;14.50;;;-2.50;99.90;;;;;;5049726;28;20819;-60
2021/11/24 07:07:19;;;;;;;30.70;16.03;;;-2.50;99.90;;;;;;5048821;28;20472;-63
2021/11/24 07:09:46;;;;;;;26.13;16.67;;;-2.40;99.90;;;;;;5049520;28;20458;-60
2021/11/24 07:12:13;;;;;;;30.63;16.33;;;-2.40;99.90;;;;;;5049678;28;20452;-63
2021/11/24 07:14:41;;;;;;;25.20;17.70;;;-2.30;99.90;;;;;;5049729;28;20450;-64
2021/11/24 07:17:09;;;;;;;29.40;16.93;;;-2.20;99.90;;;;;;5048366;28;21064;-63
2021/11/24 07:19:36;;;;;;;27.90;16.80;;;-2.10;99.90;;;;;;5049654;28;20467;-63
2021/11/24 07:22:03;;;;;;;30.20;16.03;;;-1.90;99.90;;;;;;5049956;28;21028;-62
2021/11/24 07:24:30;;;;;;;30.33;16.57;;;-1.80;99.90;;;;;;5050081;28;20453;-63
2021/11/24 07:26:57;;;;;;;28.77;17.23;;;-1.70;99.90;;;;;;5052721;28;20459;-62
2021/11/24 07:29:24;;;;;;;31.17;17.37;;;-1.60;99.90;;;;;;5056029;28;20448;-64
2021/11/24 07:31:53;;;;;;;32.70;18.50;;;-1.50;99.90;;;;;;5055944;28;20973;-62
2021/11/24 07:34:20;;;;;;;33.27;17.70;;;-1.50;99.90;;;;;;5056039;28;20742;-62
2021/11/24 07:36:47;;;;;;;31.70;19.37;;;-1.40;99.90;;;;;;5055580;28;20440;-63
2021/11/24 07:39:13;;;;;;;29.43;17.43;;;-1.30;99.90;;;;;;5056294;28;20455;-62
2021/11/24 07:41:40;;;;;;;28.13;17.87;;;-1.20;99.90;;;;;;5056121;28;21028;-63
2021/11/24 07:44:07;;;;;;;29.43;18.17;;;-1.20;99.90;;;;;;5056096;28;20447;-60
2021/11/24 07:46:34;;;;;;;29.10;17.00;;;-1.10;99.90;;;;;;5054954;28;20881;-60
2021/11/24 07:49:03;;;;;;;29.00;17.23;;;-1.10;99.90;;;;;;5056353;28;20472;-62
2021/11/24 07:51:30;;;;;;;34.37;17.53;;;-1.20;99.90;;;;;;5056169;28;20444;-62
2021/11/24 07:53:57;;;;;;;25.60;17.37;;;-1.10;99.90;;;;;;5056109;28;20451;-62
2021/11/24 07:56:24;;;;;;;29.70;18.53;;;-1.10;99.90;;;;;;5055269;28;20449;-61
2021/11/24 07:58:51;;;;;;;24.53;17.10;;;-1.00;99.90;;;;;;5055413;28;20478;-63
2021/11/24 08:01:18;;;;;;;33.23;18.90;;;-1.00;99.90;;;;;;5056213;28;20449;-62
2021/11/24 08:03:45;;;;;;;28.03;17.67;;;-0.90;99.90;;;;;;5056167;28;20571;-60
2021/11/24 08:06:13;;;;;;;29.40;18.80;;;-0.80;99.90;;;;;;5056078;28;20511;-62
2021/11/24 08:08:41;;;;;;;28.07;19.20;;;-0.50;99.90;;;;;;5057019;28;20474;-62
2021/11/24 08:11:07;;;;;;;31.60;20.33;;;-0.40;99.90;;;;;;5056042;28;20459;-63
2021/11/24 08:13:34;;;;;;;32.73;21.10;;;-0.10;99.90;;;;;;5055913;28;20444;-61
2021/11/24 08:16:01;;;;;;;32.30;19.87;;;0.10;99.90;;;;;;5055912;28;20452;-61
2021/11/24 08:18:28;;;;;;;35.43;19.23;;;0.30;99.90;;;;;;5054868;28;20469;-59
2021/11/24 08:20:55;;;;;;;36.80;19.70;;;0.30;99.90;;;;;;5055828;28;20462;-61
2021/11/24 08:23:23;;;;;;;30.67;20.50;;;0.50;99.90;;;;;;5055995;28;21117;-62
2021/11/24 08:25:50;;;;;;;32.30;19.27;;;0.70;99.90;;;;;;5051979;28;20992;-63
2021/11/24 08:28:17;;;;;;;31.73;19.50;;;0.80;99.90;;;;;;5054466;28;21037;-61
2021/11/24 08:30:44;;;;;;;29.03;18.00;;;0.90;99.90;;;;;;5055898;28;20467;-63
2021/11/24 08:33:11;;;;;;;28.30;18.13;;;1.00;99.90;;;;;;5055602;28;20824;-63
2021/11/24 08:35:38;;;;;;;27.47;18.13;;;1.00;99.90;;;;;;5055372;28;20436;-62
2021/11/24 08:38:05;;;;;;;27.47;19.20;;;1.10;99.90;;;;;;5051263;28;20555;-64
2021/11/24 08:40:33;;;;;;;27.63;18.87;;;1.30;99.90;;;;;;5052170;28;20575;-63
2021/11/24 08:43:00;;;;;;;28.00;17.63;;;1.40;99.90;;;;;;5051960;28;20855;-62
2021/11/24 08:45:27;;;;;;;25.83;18.60;;;1.60;99.90;;;;;;5052253;28;20452;-62
2021/11/24 08:47:54;;;;;;;25.60;18.53;;;1.60;99.90;;;;;;5050762;28;20470;-63
2021/11/24 08:50:22;;;;;;;26.57;18.50;;;1.70;99.90;;;;;;5052179;28;20448;-63
2021/11/24 08:52:49;;;;;;;26.97;18.10;;;1.80;99.90;;;;;;5052413;28;20452;-62
2021/11/24 08:55:17;;;;;;;32.23;20.70;;;1.80;99.90;;;;;;5052386;28;20477;-62
2021/11/24 08:57:47;;;;;;;23.77;17.17;;;2.00;99.90;;;;;;5050724;28;20467;-63
2021/11/24 09:00:16;;;;;;;25.60;17.33;;;2.10;99.90;;;;;;5052233;28;20542;-61
2021/11/24 09:02:43;;;;;;;30.33;19.07;;;2.30;99.90;;;;;;5052032;28;20483;-61
2021/11/24 09:05:11;;;;;;;24.27;17.47;;;2.40;99.90;;;;;;5051925;28;20452;-61
2021/11/24 09:07:38;;;;;;;30.87;19.00;;;2.70;99.90;;;;;;5050939;28;20471;-65
2021/11/24 09:10:06;;;;;;;25.03;16.93;;;2.80;99.90;;;;;;5052125;28;20501;-64
2021/11/24 09:12:33;;;;;;;21.97;17.10;;;3.00;99.90;;;;;;5052184;28;20469;-64
2021/11/24 09:15:01;;;;;;;23.60;18.13;;;3.10;99.90;;;;;;5051925;28;20449;-65
2021/11/24 09:17:28;;;;;;;25.37;16.87;;;3.20;99.90;;;;;;5050452;28;20475;-65
2021/11/24 09:19:55;;;;;;;24.17;17.33;;;3.20;99.90;;;;;;5051707;28;20889;-65
2021/11/24 09:22:22;;;;;;;24.97;16.53;;;3.40;99.90;;;;;;5051847;28;21180;-64
2021/11/24 09:24:53;;;;;;;22.17;16.57;;;3.50;99.90;;;;;;5051723;28;20864;-62
2021/11/24 09:27:29;;;;;;;23.47;17.00;;;3.60;99.90;;;;;;5050524;28;20563;-65
2021/11/24 09:29:56;;;;;;;24.50;16.97;;;3.80;99.90;;;;;;5051571;28;20817;-65
2021/11/24 09:32:25;;;;;;;21.87;17.57;;;4.00;99.90;;;;;;5051544;28;20447;-64
2021/11/24 09:34:52;;;;;;;25.20;18.80;;;4.20;99.90;;;;;;5051502;28;20444;-65
2021/11/24 09:37:19;;;;;;;23.27;16.10;;;4.40;99.90;;;;;;5050650;28;20996;-63
2021/11/24 09:39:46;;;;;;;22.23;17.00;;;4.60;99.90;;;;;;5051616;28;20483;-65
2021/11/24 09:42:15;;;;;;;23.57;16.83;;;4.70;99.90;;;;;;5051419;28;20452;-63
2021/11/24 09:44:46;;;;;;;21.23;15.87;;;4.80;99.90;;;;;;5051269;28;20450;-62
2021/11/24 09:47:14;;;;;;;21.60;15.07;;;5.00;99.90;;;;;;5050342;28;20476;-60
2021/11/24 09:49:45;;;;;;;17.60;14.87;;;5.10;99.90;;;;;;5051366;28;20440;-63
2021/11/24 09:52:13;;;;;;;20.03;16.07;;;5.00;99.90;;;;;;5051495;28;20440;-63
2021/11/24 09:54:40;;;;;;;16.87;13.70;;;5.10;99.90;;;;;;5051341;28;20452;-64
2021/11/24 09:57:08;;;;;;;24.13;15.20;;;5.00;99.90;;;;;;5050011;28;20779;-62
2021/11/24 09:59:34;;;;;;;20.13;15.00;;;4.80;99.90;;;;;;5050991;28;21013;-63
2021/11/24 10:02:01;;;;;;;18.80;14.63;;;4.90;99.90;;;;;;5051193;28;20957;-63
2021/11/24 10:04:28;;;;;;;19.60;13.93;;;5.10;99.90;;;;;;5050908;28;20492;-63
2021/11/24 10:06:57;;;;;;;17.80;15.27;;;5.10;99.90;;;;;;5049804;28;20455;-63
2021/11/24 10:09:24;;;;;;;19.50;13.73;;;4.90;99.90;;;;;;5050771;28;20535;-63
2021/11/24 10:11:51;;;;;;;19.73;14.97;;;4.90;99.90;;;;;;5050601;28;20838;-63
2021/11/24 10:14:18;;;;;;;16.93;13.50;;;4.90;99.90;;;;;;5050925;28;20753;-62
2021/11/24 10:16:46;;;;;;;19.60;13.87;;;5.00;99.90;;;;;;5049787;28;20455;-62
2021/11/24 10:19:14;;;;;;;17.70;13.80;;;4.80;99.90;;;;;;5050951;28;20825;-64
2021/11/24 10:21:58;;;;;;;19.40;14.43;;;4.50;99.90;;;;;;5050686;28;20886;-64
2021/11/24 10:24:31;;;;;;;19.20;14.67;;;4.70;99.90;;;;;;5050526;28;20476;-63
2021/11/24 10:26:59;;;;;;;20.03;14.50;;;4.80;99.90;;;;;;5049547;28;20480;-64
2021/11/24 10:29:26;;;;;;;19.00;14.00;;;5.00;99.90;;;;;;5050716;28;20836;-64
2021/11/24 10:31:55;;;;;;;19.23;14.10;;;5.00;99.90;;;;;;5050774;28;20543;-64
2021/11/24 10:34:24;;;;;;;22.87;15.23;;;5.00;99.90;;;;;;5050483;28;20551;-64
2021/11/24 10:36:53;;;;;;;16.57;13.23;;;5.00;99.90;;;;;;5049243;28;20960;-62
2021/11/24 10:39:22;;;;;;;17.30;14.27;;;5.00;99.90;;;;;;5050679;28;20447;-58
2021/11/24 10:41:50;;;;;;;17.77;13.50;;;5.20;99.90;;;;;;5050727;28;20536;-61
2021/11/24 10:44:26;;;;;;;15.70;12.97;;;5.30;99.90;;;;;;5050744;28;20997;-63
2021/11/24 10:46:55;;;;;;;18.10;14.77;;;5.10;99.90;;;;;;5048985;28;20448;-63
2021/11/24 10:49:32;;;;;;;17.97;13.93;;;5.00;99.90;;;;;;5050123;28;20682;-63
2021/11/24 10:51:59;;;;;;;17.90;14.33;;;5.10;99.90;;;;;;5050617;28;20440;-62
2021/11/24 10:54:27;;;;;;;15.37;13.20;;;5.20;99.90;;;;;;5050491;28;20919;-62
2021/11/24 10:57:05;;;;;;;17.20;13.03;;;5.00;99.90;;;;;;5048930;28;21032;-62
2021/11/24 10:59:34;;;;;;;22.70;13.87;;;4.80;99.90;;;;;;5050138;28;20873;-63
2021/11/24 11:02:20;;;;;;;18.80;15.57;;;4.60;99.90;;;;;;5049798;28;20879;-63
2021/11/24 11:04:58;;;;;;;21.20;15.50;;;4.70;99.90;;;;;;5049303;28;20480;-61
2021/11/24 11:07:26;;;;;;;18.20;13.00;;;4.80;99.90;;;;;;5048715;28;20555;-63
2021/11/24 11:10:09;;;;;;;20.70;14.13;;;4.90;99.90;;;;;;5049828;28;20475;-63
2021/11/24 11:12:38;;;;;;;18.60;14.00;;;4.90;99.90;;;;;;5050026;28;20443;-63
2021/11/24 11:15:27;;;;;;;16.93;12.17;;;4.90;99.90;;;;;;5049685;28;20455;-63
2021/11/24 11:18:10;;;;;;;21.60;15.00;;;5.00;99.90;;;;;;5044189;28;20498;-63
2021/11/24 11:20:41;;;;;;;18.30;14.70;;;5.30;99.90;;;;;;5047199;28;20460;-63
2021/11/24 11:23:14;;;;;;;18.40;14.33;;;5.60;99.90;;;;;;5049638;28;20858;-62
2021/11/24 11:25:44;;;;;;;18.52;14.10;;;5.80;99.90;;;;;;5049665;28;20868;-64
2021/11/24 11:28:11;;;;;;;18.60;13.53;;;6.00;99.90;;;;;;5048307;28;20222;-63
2021/11/24 11:30:41;;;;;;;14.50;11.33;;;5.90;99.90;;;;;;5049639;28;20827;-63
2021/11/24 11:33:08;;;;;;;14.70;10.60;;;5.80;99.90;;;;;;5049512;28;20452;-63
2021/11/24 11:35:36;;;;;;;14.43;12.70;;;5.90;99.90;;;;;;5049456;28;20451;-63
2021/11/24 11:38:03;;;;;;;14.55;11.70;;;6.00;99.90;;;;;;5048047;28;20845;-63
2021/11/24 11:40:31;;;;;;;13.87;11.87;;;6.10;99.90;;;;;;5049578;28;20204;-63
2021/11/24 11:43:01;;;;;;;15.17;12.40;;;6.10;99.90;;;;;;5049295;28;20939;-63
2021/11/24 11:45:31;;;;;;;14.50;11.07;;;6.00;99.90;;;;;;5050056;28;20946;-63
2021/11/24 11:48:01;;;;;;;12.90;11.13;;;5.80;99.90;;;;;;5048337;28;20923;-63
2021/11/24 11:50:55;;;;;;;16.13;11.80;;;5.60;99.90;;;;;;5049451;28;20491;-63
2021/11/24 11:53:26;;;;;;;14.57;11.70;;;5.40;99.90;;;;;;5049296;28;20462;-64
2021/11/24 11:56:16;;;;;;;15.33;11.87;;;5.30;99.90;;;;;;5049059;28;20580;-63
2021/11/24 11:58:54;;;;;;;14.67;12.37;;;5.20;99.90;;;;;;5048906;28;20467;-62
2021/11/24 12:01:24;;;;;;;14.30;12.47;;;5.20;99.90;;;;;;5049170;28;20445;-63
2021/11/24 12:03:56;;;;;;;16.53;13.40;;;5.10;99.90;;;;;;5048944;28;20891;-63
2021/11/24 12:06:26;;;;;;;14.83;11.40;;;5.00;99.90;;;;;;5048093;28;20449;-63
2021/11/24 12:09:14;;;;;;;16.33;12.37;;;5.00;99.90;;;;;;5048651;28;20853;-63
2021/11/24 12:12:18;;;;;;;15.43;11.67;;;5.00;99.90;;;;;;5048993;28;20834;-63
2021/11/24 12:15:01;;;;;;;16.33;12.50;;;5.10;99.90;;;;;;5052415;28;20444;-65
2021/11/24 12:17:52;;;;;;;16.87;12.53;;;5.10;99.90;;;;;;5051715;28;20560;-63
2021/11/24 12:20:46;;;;;;;15.53;12.37;;;5.20;99.90;;;;;;5052694;28;20456;-64
2021/11/24 12:23:22;;;;;;;15.83;12.47;;;5.30;99.90;;;;;;5052637;28;20536;-63
2021/11/24 12:25:50;;;;;;;14.53;11.70;;;5.30;99.90;;;;;;5052907;28;20447;-61
2021/11/24 12:28:20;;;;;;;15.97;12.47;;;5.20;99.90;;;;;;5051570;28;21000;-62
2021/11/24 12:31:06;;;;;;;13.10;11.07;;;5.20;99.90;;;;;;5053006;28;20440;-61
2021/11/24 12:33:43;;;;;;;18.40;14.57;;;5.10;99.90;;;;;;5052458;28;20781;-60
2021/11/24 12:36:12;;;;;;;15.10;10.93;;;5.10;99.90;;;;;;5052478;28;20471;-64
2021/11/24 12:38:41;;;;;;;16.30;12.37;;;5.00;99.90;;;;;;5052274;28;20517;-63
2021/11/24 12:41:11;;;;;;;16.40;12.60;;;5.00;99.90;;;;;;5052432;28;20453;-64